Terminal Aerodrome Forecast
Issued by NWS Paducah, KY

Home | Current Version | Previous Version | Text Only | Print | Product List | Glossary Off
Versions: 1 2 3 4 5 6 7 8 9 10 11 12 13 14 15 16 17 18 19 20 21 22 23 24

000
FTUS43 KPAH 051249 AAB
TAFPAH
TAF AMD
KPAH 051249Z 0513/0612 00000KT 1SM BR VV003
      TEMPO 0513/0514 3SM BR SCT003
     FM051400 VRB02KT 4SM BR BKN015
     FM051600 17003KT 6SM HZ SCT035
     FM060800 VRB03KT 3SM BR SCT050=

USA.gov is the U.S. government's official web portal to all federal, state and local government web resources and services.